Home > Products > Valid Products > TAF

000
FTUS42 KKEY 221300 AAA
TAFEYW
TAF AMD
KEYW 221345Z 2214/2312 10008KT P6SM VCSH SCT025 BKN100=



000
FTUS42 KKEY 221100
TAFEYW
TAF
KEYW 221140Z 2212/2312 08006KT P6SM SCT020 BKN100
     FM221300 10008KT P6SM -RA SCT025 BKN100
     FM221700 08008KT 5SM -RA SCT025 BKN080=



000
FTUS42 KKEY 220800 AAA
TAFEYW
TAF AMD
KEYW 220900Z 2209/2306 08006KT P6SM SCT020 BKN120
     FM221500 10008KT P6SM VCSH SCT025 BKN100=



000
FTUS42 KKEY 220500
TAFEYW
TAF
KEYW 220537Z 2206/2306 08006KT P6SM SCT025 BKN120
     FM221400 10008KT P6SM VCSH SCT025 BKN100=



000
FTUS42 KKEY 220500
TAFEYW
TAF
KEYW 220537Z 2206/2306 08006KT P6SM SCT025 BKN120
     FM221400 10008KT P6SM VCSH SCT025 BKN100=



000
FTUS42 KKEY 212300
TAFEYW
TAF
KEYW 212333Z 2200/2224 VRB06KT 6SM -RA SCT025 BKN040
     FM220300 15008KT 6SM RA SCT020 BKN100
      TEMPO 2203/2206 17010G18KT 1SM +SHRA BKN025 OVC035=



000
FTUS42 KKEY 211700 RRA
TAFEYW
TAF
KEYW 211741Z 2118/2218 VRB06KT 5SM -RA SCT025 BKN040
      TEMPO 2120/2123 3SM RA BKN025
     FM212300 09008KT P6SM VCSH SCT020 BKN100=



000
FTUS42 KKEY 211500 AAC
TAFEYW
TAF AMD
KEYW 211556Z 2116/2212 VRB10G20KT 5SM -RA SCT025 BKN040
      TEMPO 2116/2118 24010G25KT 1SM +RA BKN025
     FM212100 05008KT P6SM VCSH SCT020 BKN100=



000
FTUS42 KKEY 211500 AAC
TAFEYW
TAF AMD
KEYW 211556Z 2116/2212 VRB10G20KT 5SM -RA SCT025 BKN040
      TEMPO 2116/2118 24010G25KT 1SM +RA BKN025
     FM212100 05008KT P6SM VCSH SCT020 BKN100=



000
FTUS42 KKEY 211500 AAC
TAFEYW
TAF AMD
KEYW 211556Z 2116/2212 VRB10G20KT 5SM -RA SCT025 BKN040
      TEMPO 2116/2118 24010G25KT 1SM +RA BKN025
     FM212100 05008KT P6SM VCSH SCT020 BKN100=



000
FTUS42 KKEY 211500 AAB
TAFEYW
TAF AMD
KEYW 211517Z 2115/2212 VRB10G20KT 5SM -RA SCT025 BKN040
     FM212100 05008KT P6SM VCSH SCT020 BKN100=



000
FTUS42 KKEY 211500 AAB
TAFEYW
TAF AMD
KEYW 211517Z 2115/2212 VRB10G20KT 5SM -RA SCT025 BKN040
     FM212100 05008KT P6SM VCSH SCT020 BKN100=



000
FTUS42 KKEY 211500 AAB
TAFEYW
TAF AMD
KEYW 211517Z 2115/2212 VRB10G20KT 5SM -RA SCT025 BKN040
     FM212100 05008KT P6SM VCSH SCT020 BKN100=



000
FTUS42 KKEY 211400 AAA
TAFEYW
TAF AMD
KEYW 211410Z 2114/2212 13007KT 5SM -RA SCT025 BKN050
      TEMPO 2114/1416 15010G20KT 2SM +RA BKN025
     FM212100 05008KT P6SM VCSH SCT020 BKN100=



000
FTUS42 KKEY 211400 AAA
TAFEYW
TAF AMD
KEYW 211410Z 2114/2212 13007KT 5SM -RA SCT025 BKN050
      TEMPO 2114/1416 15010G20KT 2SM +RA BKN025
     FM212100 05008KT P6SM VCSH SCT020 BKN100=



000
FTUS42 KKEY 211100
TAFEYW
TAF
KEYW 211138Z 2112/2212 13007KT P6SM SCT025 BKN150
     FM212100 05008KT P6SM VCSH SCT020 BKN100=



000
FTUS42 KKEY 211100
TAFEYW
TAF
KEYW 211138Z 2112/2212 13007KT P6SM SCT025 BKN150
     FM212100 05008KT P6SM VCSH SCT020 BKN100=



000
FTUS42 KKEY 211100
TAFEYW
TAF
KEYW 211138Z 2112/2212 13007KT P6SM SCT025 BKN150
     FM212100 05008KT P6SM VCSH SCT020 BKN100=



000
FTUS42 KKEY 211100
TAFEYW
TAF
KEYW 211138Z 2112/2212 13007KT P6SM SCT025 BKN150
     FM212100 05008KT P6SM VCSH SCT020 BKN100=



000
FTUS42 KKEY 210900 AAA
TAFEYW
TAF AMD
KEYW 210907Z 2109/2206 13004KT P6SM FEW020
     FM212100 05008KT P6SM SCT020 BKN100=



000
FTUS42 KKEY 210900 AAA
TAFEYW
TAF AMD
KEYW 210907Z 2109/2206 13004KT P6SM FEW020
     FM212100 05008KT P6SM SCT020 BKN100=



000
FTUS42 KKEY 210500
TAFEYW
TAF
KEYW 210531Z 2106/2206 13007KT P6SM FEW020
     FM212100 05008KT P6SM SCT020 BKN100=



000
FTUS42 KKEY 210500
TAFEYW
TAF
KEYW 210531Z 2106/2206 13007KT P6SM FEW020
     FM212100 05008KT P6SM SCT020 BKN100=



000
FTUS42 KKEY 210200 AAB
TAFEYW
TAF AMD
KEYW 210245Z 2103/2124 19007KT P6SM VCSH FEW025=



000
FTUS42 KKEY 210200 AAB
TAFEYW
TAF AMD
KEYW 210245Z 2103/2124 19007KT P6SM VCSH FEW025=



000
FTUS42 KKEY 210200 AAB
TAFEYW
TAF AMD
KEYW 210245Z 2103/2124 19007KT P6SM VCSH FEW025=



000
FTUS42 KKEY 210200 AAB
TAFEYW
TAF AMD
KEYW 210245Z 2103/2124 19007KT P6SM VCSH FEW025=



000
FTUS42 KKEY 210100 AAA
TAFEYW
TAF AMD
KEYW 210147Z 2102/2124 19008G18KT P6SM VCSH FEW025=



000
FTUS42 KKEY 210100 AAA
TAFEYW
TAF AMD
KEYW 210147Z 2102/2124 19008G18KT P6SM VCSH FEW025=



000
FTUS42 KKEY 210100 AAA
TAFEYW
TAF AMD
KEYW 210147Z 2102/2124 19008G18KT P6SM VCSH FEW025=



000
FTUS42 KKEY 210100 AAA
TAFEYW
TAF AMD
KEYW 210147Z 2102/2124 19008G18KT P6SM VCSH FEW025=



000
FTUS42 KKEY 202300
TAFEYW
TAF
KEYW 202333Z 2100/2124 14007KT P6SM VCSH FEW025=



000
FTUS42 KKEY 202300
TAFEYW
TAF
KEYW 202333Z 2100/2124 14007KT P6SM VCSH FEW025=



000
FTUS42 KKEY 202000 AAD
TAFEYW
TAF AMD
KEYW 202049Z 2021/2118 13007KT P6SM VCSH FEW040 SCT070=



000
FTUS42 KKEY 202000 AAD
TAFEYW
TAF AMD
KEYW 202049Z 2021/2118 13007KT P6SM VCSH FEW040 SCT070=



000
FTUS42 KKEY 202000 AAC
TAFEYW
TAF AMD
KEYW 202005Z 2020/2118 14008KT P6SM VCSH FEW040 BKN060
      TEMPO 2020/2021 3SM RA SCT030 BKN040=



000
FTUS42 KKEY 202000 AAC
TAFEYW
TAF AMD
KEYW 202005Z 2020/2118 14008KT P6SM VCSH FEW040 BKN060
      TEMPO 2020/2021 3SM RA SCT030 BKN040=



000
FTUS42 KKEY 201900 AAB
TAFEYW
TAF AMD
KEYW 201948Z 2020/2118 14008KT P6SM VCSH SCT020
      TEMPO 2020/2021 2SM TSRA BKN035CB OVC045
     FM202100 15008KT P6SM VCSH SCT020 PROB30 2109/2115 3SM SHRA
      BKN020=



000
FTUS42 KKEY 201900 AAB
TAFEYW
TAF AMD
KEYW 201948Z 2020/2118 14008KT P6SM VCSH SCT020
      TEMPO 2020/2021 2SM TSRA BKN035CB OVC045
     FM202100 15008KT P6SM VCSH SCT020 PROB30 2109/2115 3SM SHRA
      BKN020=



000
FTUS42 KKEY 201900 AAA
TAFEYW
TAF AMD
KEYW 201907Z 2019/2118 14008KT P6SM VCSH SCT020
      TEMPO 2019/2020 3SM SHRA BKN020
     FM202100 15008KT P6SM VCSH SCT020 PROB30 2109/2115 3SM SHRA
      BKN020=



000
FTUS42 KKEY 201900 AAA
TAFEYW
TAF AMD
KEYW 201907Z 2019/2118 14008KT P6SM VCSH SCT020
      TEMPO 2019/2020 3SM SHRA BKN020
     FM202100 15008KT P6SM VCSH SCT020 PROB30 2109/2115 3SM SHRA
      BKN020=



000
FTUS42 KKEY 201700
TAFEYW
TAF
KEYW 201738Z 2018/2118 14008KT P6SM VCSH SCT020 PROB30 2109/2115
      3SM SHRA BKN020=



000
FTUS42 KKEY 201700
TAFEYW
TAF
KEYW 201738Z 2018/2118 14008KT P6SM VCSH SCT020 PROB30 2109/2115
      3SM SHRA BKN020=



000
FTUS42 KKEY 201400 AAA
TAFEYW
TAF AMD
KEYW 201438Z 2015/2112 13008KT P6SM VCSH SCT020=



000
FTUS42 KKEY 201400 AAA
TAFEYW
TAF AMD
KEYW 201438Z 2015/2112 13008KT P6SM VCSH SCT020=



000
FTUS42 KKEY 201100
TAFEYW
TAF
KEYW 201129Z 2012/2112 12008KT P6SM VCSH SCT020=



000
FTUS42 KKEY 201100
TAFEYW
TAF
KEYW 201129Z 2012/2112 12008KT P6SM VCSH SCT020=



000
FTUS42 KKEY 201000 AAB
TAFEYW
TAF AMD
KEYW 201012Z 2010/2106 11010KT P6SM VCSH SCT020=



000
FTUS42 KKEY 201000 AAB
TAFEYW
TAF AMD
KEYW 201012Z 2010/2106 11010KT P6SM VCSH SCT020=



000
FTUS42 KKEY 201000 AAB
TAFEYW
TAF AMD
KEYW 201012Z 2010/2106 11010KT P6SM VCSH SCT020=



000
FTUS42 KKEY 201000 AAB
TAFEYW
TAF AMD
KEYW 201012Z 2010/2106 11010KT P6SM VCSH SCT020=



000
FTUS42 KKEY 200800 AAA
TAFEYW
TAF AMD
KEYW 200855Z 2009/2106 11010KT P6SM VCSH SCT020
      TEMPO 2009/2011 17010G20KT 3SM SHRA BKN025 OVC050=



000
FTUS42 KKEY 200800 AAA
TAFEYW
TAF AMD
KEYW 200855Z 2009/2106 11010KT P6SM VCSH SCT020
      TEMPO 2009/2011 17010G20KT 3SM SHRA BKN025 OVC050=



000
FTUS42 KKEY 200500
TAFEYW
TAF
KEYW 200521Z 2006/2106 09009KT P6SM SCT025
     FM200900 11010KT P6SM VCSH SCT020=



000
FTUS42 KKEY 200500
TAFEYW
TAF
KEYW 200521Z 2006/2106 09009KT P6SM SCT025
     FM200900 11010KT P6SM VCSH SCT020=



000
FTUS42 KKEY 192300
TAFEYW
TAF
KEYW 192329Z 2000/2024 06004KT P6SM FEW030
     FM200600 10009KT P6SM SCT025
     FM201000 11010KT P6SM VCSH SCT020=



000
FTUS42 KKEY 192300
TAFEYW
TAF
KEYW 192329Z 2000/2024 06004KT P6SM FEW030
     FM200600 10009KT P6SM SCT025
     FM201000 11010KT P6SM VCSH SCT020=



000
FTUS42 KKEY 192300
TAFEYW
TAF
KEYW 192329Z 2000/2024 06004KT P6SM FEW030
     FM200600 10009KT P6SM SCT025
     FM201000 11010KT P6SM VCSH SCT020=



000
FTUS42 KKEY 192300
TAFEYW
TAF
KEYW 192329Z 2000/2024 06004KT P6SM FEW030
     FM200600 10009KT P6SM SCT025
     FM201000 11010KT P6SM VCSH SCT020=



000
FTUS42 KKEY 191800 RRA
TAFEYW
TAF
KEYW 191812Z 1918/2018 13007KT P6SM FEW035=



000
FTUS42 KKEY 191800 RRA
TAFEYW
TAF
KEYW 191812Z 1918/2018 13007KT P6SM FEW035=



000
FTUS42 KKEY 191400 AAA
TAFEYW
TAF AMD
KEYW 191454Z 1915/2012 09007KT P6SM FEW035=



000
FTUS42 KKEY 191400 AAA
TAFEYW
TAF AMD
KEYW 191454Z 1915/2012 09007KT P6SM FEW035=



    US Dept of Commerce
    National Oceanic and Atmospheric Administration
    National Weather Service
    1325 East West Highway
    Silver Spring, MD 20910
    Page Author: NWS Internet Services Team
Disclaimer
Information Quality
Credits
Glossary
Privacy Policy
Freedom of Information Act (FOIA)
About Us
Career Opportunities